sensor_id;sensor_type;location;lat;lon;timestamp;P1;durP1;ratioP1;P2;durP2;ratioP2
38457;SDS011;24239;48.058;10.486;2022-12-29T00:00:06;3.58;;;2.53;;
38457;SDS011;24239;48.058;10.486;2022-12-29T00:02:35;6.13;;;2.85;;
38457;SDS011;24239;48.058;10.486;2022-12-29T00:05:02;4.82;;;2.70;;
38457;SDS011;24239;48.058;10.486;2022-12-29T00:07:32;5.32;;;3.10;;
38457;SDS011;24239;48.058;10.486;2022-12-29T00:10:00;7.90;;;3.50;;
38457;SDS011;24239;48.058;10.486;2022-12-29T00:12:35;5.65;;;3.88;;
38457;SDS011;24239;48.058;10.486;2022-12-29T00:15:20;7.03;;;3.80;;
38457;SDS011;24239;48.058;10.486;2022-12-29T00:18:01;7.93;;;4.50;;
38457;SDS011;24239;48.058;10.486;2022-12-29T00:20:33;10.75;;;4.03;;
38457;SDS011;24239;48.058;10.486;2022-12-29T00:23:19;6.25;;;3.72;;
38457;SDS011;24239;48.058;10.486;2022-12-29T00:26:03;5.38;;;3.40;;
38457;SDS011;24239;48.058;10.486;2022-12-29T00:28:52;5.50;;;3.47;;
38457;SDS011;24239;48.058;10.486;2022-12-29T00:31:37;3.50;;;3.20;;
38457;SDS011;24239;48.058;10.486;2022-12-29T00:34:22;4.22;;;3.05;;
38457;SDS011;24239;48.058;10.486;2022-12-29T00:37:12;6.55;;;3.60;;
38457;SDS011;24239;48.058;10.486;2022-12-29T00:39:39;7.72;;;3.67;;
38457;SDS011;24239;48.058;10.486;2022-12-29T00:42:25;7.72;;;4.05;;
38457;SDS011;24239;48.058;10.486;2022-12-29T00:45:10;7.93;;;4.15;;
38457;SDS011;24239;48.058;10.486;2022-12-29T00:47:37;7.22;;;4.03;;
38457;SDS011;24239;48.058;10.486;2022-12-29T00:50:04;4.95;;;3.30;;
38457;SDS011;24239;48.058;10.486;2022-12-29T00:52:31;5.18;;;3.47;;
38457;SDS011;24239;48.058;10.486;2022-12-29T00:54:58;4.75;;;3.00;;
38457;SDS011;24239;48.058;10.486;2022-12-29T00:57:27;3.20;;;2.88;;
38457;SDS011;24239;48.058;10.486;2022-12-29T00:59:54;5.63;;;3.50;;
38457;SDS011;24239;48.058;10.486;2022-12-29T01:02:22;4.47;;;2.50;;
38457;SDS011;24239;48.058;10.486;2022-12-29T01:04:48;2.90;;;2.60;;
38457;SDS011;24239;48.058;10.486;2022-12-29T01:07:15;4.25;;;2.75;;
38457;SDS011;24239;48.058;10.486;2022-12-29T01:09:45;2.88;;;2.58;;
38457;SDS011;24239;48.058;10.486;2022-12-29T01:12:33;6.50;;;3.20;;
38457;SDS011;24239;48.058;10.486;2022-12-29T01:15:08;4.80;;;3.25;;
38457;SDS011;24239;48.058;10.486;2022-12-29T01:17:36;7.97;;;4.53;;
38457;SDS011;24239;48.058;10.486;2022-12-29T01:20:03;7.72;;;4.80;;
38457;SDS011;24239;48.058;10.486;2022-12-29T01:22:30;9.52;;;5.07;;
38457;SDS011;24239;48.058;10.486;2022-12-29T01:24:57;13.60;;;6.40;;
38457;SDS011;24239;48.058;10.486;2022-12-29T01:27:25;10.27;;;6.60;;
38457;SDS011;24239;48.058;10.486;2022-12-29T01:29:55;11.13;;;5.97;;
38457;SDS011;24239;48.058;10.486;2022-12-29T01:32:24;11.30;;;6.10;;
38457;SDS011;24239;48.058;10.486;2022-12-29T01:34:56;11.60;;;5.75;;
38457;SDS011;24239;48.058;10.486;2022-12-29T01:37:24;13.48;;;6.20;;
38457;SDS011;24239;48.058;10.486;2022-12-29T01:39:51;8.93;;;5.10;;
38457;SDS011;24239;48.058;10.486;2022-12-29T01:42:17;10.23;;;4.90;;
38457;SDS011;24239;48.058;10.486;2022-12-29T01:44:49;6.05;;;4.00;;
38457;SDS011;24239;48.058;10.486;2022-12-29T01:48:02;6.53;;;3.85;;
38457;SDS011;24239;48.058;10.486;2022-12-29T01:50:09;5.93;;;3.40;;
38457;SDS011;24239;48.058;10.486;2022-12-29T01:55:45;2.75;;;2.55;;
38457;SDS011;24239;48.058;10.486;2022-12-29T01:58:36;4.95;;;2.88;;
38457;SDS011;24239;48.058;10.486;2022-12-29T02:01:08;3.63;;;2.47;;
38457;SDS011;24239;48.058;10.486;2022-12-29T02:03:37;2.55;;;2.15;;
38457;SDS011;24239;48.058;10.486;2022-12-29T02:06:18;3.08;;;2.30;;
38457;SDS011;24239;48.058;10.486;2022-12-29T02:09:02;2.03;;;1.85;;
38457;SDS011;24239;48.058;10.486;2022-12-29T02:11:30;2.70;;;2.00;;
38457;SDS011;24239;48.058;10.486;2022-12-29T02:13:58;2.60;;;1.90;;
38457;SDS011;24239;48.058;10.486;2022-12-29T02:16:36;2.40;;;1.80;;
38457;SDS011;24239;48.058;10.486;2022-12-29T02:25:10;1.95;;;1.80;;
38457;SDS011;24239;48.058;10.486;2022-12-29T02:30:31;1.80;;;1.70;;
38457;SDS011;24239;48.058;10.486;2022-12-29T02:36:23;2.25;;;1.60;;
38457;SDS011;24239;48.058;10.486;2022-12-29T02:39:12;1.92;;;1.60;;
38457;SDS011;24239;48.058;10.486;2022-12-29T02:41:54;1.73;;;1.58;;
38457;SDS011;24239;48.058;10.486;2022-12-29T02:44:49;1.88;;;1.60;;
38457;SDS011;24239;48.058;10.486;2022-12-29T02:47:23;1.65;;;1.50;;
38457;SDS011;24239;48.058;10.486;2022-12-29T02:50:13;1.40;;;1.30;;
38457;SDS011;24239;48.058;10.486;2022-12-29T02:53:00;2.40;;;1.63;;
38457;SDS011;24239;48.058;10.486;2022-12-29T02:55:30;2.60;;;2.38;;
38457;SDS011;24239;48.058;10.486;2022-12-29T03:00:35;4.82;;;1.50;;
38457;SDS011;24239;48.058;10.486;2022-12-29T03:11:19;4.20;;;1.55;;
38457;SDS011;24239;48.058;10.486;2022-12-29T03:20:26;3.28;;;1.40;;
38457;SDS011;24239;48.058;10.486;2022-12-29T03:23:03;1.40;;;1.30;;
38457;SDS011;24239;48.058;10.486;2022-12-29T03:25:32;3.47;;;1.52;;
38457;SDS011;24239;48.058;10.486;2022-12-29T03:28:06;2.90;;;1.38;;
38457;SDS011;24239;48.058;10.486;2022-12-29T03:30:36;1.80;;;1.40;;
38457;SDS011;24239;48.058;10.486;2022-12-29T03:33:10;1.88;;;1.48;;
38457;SDS011;24239;48.058;10.486;2022-12-29T03:35:44;1.58;;;1.48;;
38457;SDS011;24239;48.058;10.486;2022-12-29T03:38:16;1.35;;;1.30;;
38457;SDS011;24239;48.058;10.486;2022-12-29T03:41:07;2.22;;;1.40;;
38457;SDS011;24239;48.058;10.486;2022-12-29T03:43:37;1.30;;;1.20;;
38457;SDS011;24239;48.058;10.486;2022-12-29T03:46:07;2.35;;;1.40;;
38457;SDS011;24239;48.058;10.486;2022-12-29T03:48:39;1.55;;;1.45;;
38457;SDS011;24239;48.058;10.486;2022-12-29T03:51:07;2.75;;;1.42;;
38457;SDS011;24239;48.058;10.486;2022-12-29T03:53:37;1.67;;;1.38;;
38457;SDS011;24239;48.058;10.486;2022-12-29T03:56:04;3.30;;;1.80;;
38457;SDS011;24239;48.058;10.486;2022-12-29T04:01:04;1.35;;;1.23;;
38457;SDS011;24239;48.058;10.486;2022-12-29T04:03:36;3.97;;;1.60;;
38457;SDS011;24239;48.058;10.486;2022-12-29T04:06:01;1.63;;;1.40;;
38457;SDS011;24239;48.058;10.486;2022-12-29T04:08:29;2.13;;;1.30;;
38457;SDS011;24239;48.058;10.486;2022-12-29T04:10:56;1.48;;;1.38;;
38457;SDS011;24239;48.058;10.486;2022-12-29T04:13:22;1.80;;;1.38;;
38457;SDS011;24239;48.058;10.486;2022-12-29T04:15:48;2.33;;;1.50;;
38457;SDS011;24239;48.058;10.486;2022-12-29T04:18:14;2.95;;;1.25;;
38457;SDS011;24239;48.058;10.486;2022-12-29T04:20:41;2.45;;;1.77;;
38457;SDS011;24239;48.058;10.486;2022-12-29T04:23:31;2.30;;;1.20;;
38457;SDS011;24239;48.058;10.486;2022-12-29T04:26:01;2.60;;;1.63;;
38457;SDS011;24239;48.058;10.486;2022-12-29T04:28:33;3.35;;;1.40;;
38457;SDS011;24239;48.058;10.486;2022-12-29T04:31:00;1.40;;;1.30;;
38457;SDS011;24239;48.058;10.486;2022-12-29T04:33:29;1.77;;;1.10;;
38457;SDS011;24239;48.058;10.486;2022-12-29T04:35:58;1.40;;;1.30;;
38457;SDS011;24239;48.058;10.486;2022-12-29T04:38:25;1.67;;;1.40;;
38457;SDS011;24239;48.058;10.486;2022-12-29T04:40:51;1.70;;;1.60;;
38457;SDS011;24239;48.058;10.486;2022-12-29T04:43:18;1.50;;;1.40;;
38457;SDS011;24239;48.058;10.486;2022-12-29T04:45:50;1.30;;;1.23;;
38457;SDS011;24239;48.058;10.486;2022-12-29T04:48:16;1.67;;;1.40;;
38457;SDS011;24239;48.058;10.486;2022-12-29T04:50:47;1.95;;;1.50;;
38457;SDS011;24239;48.058;10.486;2022-12-29T04:53:15;1.65;;;1.55;;
38457;SDS011;24239;48.058;10.486;2022-12-29T04:55:43;1.52;;;1.40;;
38457;SDS011;24239;48.058;10.486;2022-12-29T04:58:09;1.50;;;1.40;;
38457;SDS011;24239;48.058;10.486;2022-12-29T05:00:35;2.22;;;1.65;;
38457;SDS011;24239;48.058;10.486;2022-12-29T05:03:02;1.50;;;1.40;;
38457;SDS011;24239;48.058;10.486;2022-12-29T05:05:28;1.83;;;1.73;;
38457;SDS011;24239;48.058;10.486;2022-12-29T05:07:54;1.73;;;1.63;;
38457;SDS011;24239;48.058;10.486;2022-12-29T05:10:20;3.40;;;1.77;;
38457;SDS011;24239;48.058;10.486;2022-12-29T05:12:47;2.70;;;1.60;;
38457;SDS011;24239;48.058;10.486;2022-12-29T05:15:13;1.85;;;1.60;;
38457;SDS011;24239;48.058;10.486;2022-12-29T05:17:39;2.00;;;1.50;;
38457;SDS011;24239;48.058;10.486;2022-12-29T05:20:05;2.20;;;1.77;;
38457;SDS011;24239;48.058;10.486;2022-12-29T05:22:31;3.03;;;1.50;;
38457;SDS011;24239;48.058;10.486;2022-12-29T05:24:57;1.73;;;1.63;;
38457;SDS011;24239;48.058;10.486;2022-12-29T05:27:23;1.63;;;1.50;;
38457;SDS011;24239;48.058;10.486;2022-12-29T05:29:49;3.78;;;1.88;;
38457;SDS011;24239;48.058;10.486;2022-12-29T05:32:17;2.50;;;2.30;;
38457;SDS011;24239;48.058;10.486;2022-12-29T05:34:43;1.55;;;1.45;;
38457;SDS011;24239;48.058;10.486;2022-12-29T05:37:10;2.67;;;1.80;;
38457;SDS011;24239;48.058;10.486;2022-12-29T05:39:36;3.33;;;1.70;;
38457;SDS011;24239;48.058;10.486;2022-12-29T05:42:06;4.75;;;2.25;;
38457;SDS011;24239;48.058;10.486;2022-12-29T05:44:32;2.30;;;1.80;;
38457;SDS011;24239;48.058;10.486;2022-12-29T05:46:58;2.72;;;1.98;;
38457;SDS011;24239;48.058;10.486;2022-12-29T05:49:24;2.45;;;1.58;;
38457;SDS011;24239;48.058;10.486;2022-12-29T05:51:51;4.50;;;1.80;;
38457;SDS011;24239;48.058;10.486;2022-12-29T05:54:16;1.83;;;1.70;;
38457;SDS011;24239;48.058;10.486;2022-12-29T05:56:44;4.88;;;1.80;;
38457;SDS011;24239;48.058;10.486;2022-12-29T05:59:10;2.75;;;1.80;;
38457;SDS011;24239;48.058;10.486;2022-12-29T06:01:36;2.95;;;1.73;;
38457;SDS011;24239;48.058;10.486;2022-12-29T06:04:05;2.80;;;1.83;;
38457;SDS011;24239;48.058;10.486;2022-12-29T06:06:33;2.20;;;1.80;;
38457;SDS011;24239;48.058;10.486;2022-12-29T06:08:58;2.97;;;2.15;;
38457;SDS011;24239;48.058;10.486;2022-12-29T06:11:24;2.13;;;1.90;;
38457;SDS011;24239;48.058;10.486;2022-12-29T06:13:51;2.92;;;1.70;;
38457;SDS011;24239;48.058;10.486;2022-12-29T06:16:21;2.80;;;1.67;;
38457;SDS011;24239;48.058;10.486;2022-12-29T06:18:46;1.70;;;1.60;;
38457;SDS011;24239;48.058;10.486;2022-12-29T06:21:13;1.60;;;1.50;;
38457;SDS011;24239;48.058;10.486;2022-12-29T06:23:46;1.73;;;1.63;;
38457;SDS011;24239;48.058;10.486;2022-12-29T06:26:17;2.67;;;1.95;;
38457;SDS011;24239;48.058;10.486;2022-12-29T06:28:43;3.17;;;1.88;;
38457;SDS011;24239;48.058;10.486;2022-12-29T06:31:09;2.05;;;1.70;;
38457;SDS011;24239;48.058;10.486;2022-12-29T06:33:37;2.42;;;1.88;;
38457;SDS011;24239;48.058;10.486;2022-12-29T06:36:03;6.10;;;2.33;;
38457;SDS011;24239;48.058;10.486;2022-12-29T06:38:29;3.40;;;2.05;;
38457;SDS011;24239;48.058;10.486;2022-12-29T06:40:58;2.53;;;1.85;;
38457;SDS011;24239;48.058;10.486;2022-12-29T06:43:24;2.47;;;1.90;;
38457;SDS011;24239;48.058;10.486;2022-12-29T06:45:50;5.30;;;2.55;;
38457;SDS011;24239;48.058;10.486;2022-12-29T06:48:17;2.10;;;1.75;;
38457;SDS011;24239;48.058;10.486;2022-12-29T06:50:45;3.15;;;1.67;;
38457;SDS011;24239;48.058;10.486;2022-12-29T06:53:11;2.13;;;1.77;;
38457;SDS011;24239;48.058;10.486;2022-12-29T06:55:37;4.03;;;1.80;;
38457;SDS011;24239;48.058;10.486;2022-12-29T06:58:03;1.95;;;1.67;;
38457;SDS011;24239;48.058;10.486;2022-12-29T07:00:28;1.88;;;1.60;;
38457;SDS011;24239;48.058;10.486;2022-12-29T07:02:55;3.85;;;1.90;;
38457;SDS011;24239;48.058;10.486;2022-12-29T07:05:23;2.97;;;1.92;;
38457;SDS011;24239;48.058;10.486;2022-12-29T07:07:50;3.35;;;1.80;;
38457;SDS011;24239;48.058;10.486;2022-12-29T07:10:16;3.50;;;2.17;;
38457;SDS011;24239;48.058;10.486;2022-12-29T07:12:43;4.80;;;1.90;;
38457;SDS011;24239;48.058;10.486;2022-12-29T07:15:09;2.65;;;1.92;;
38457;SDS011;24239;48.058;10.486;2022-12-29T07:17:35;3.05;;;2.08;;
38457;SDS011;24239;48.058;10.486;2022-12-29T07:20:03;3.60;;;2.05;;
38457;SDS011;24239;48.058;10.486;2022-12-29T07:22:32;7.22;;;2.03;;
38457;SDS011;24239;48.058;10.486;2022-12-29T07:24:58;7.53;;;2.30;;
38457;SDS011;24239;48.058;10.486;2022-12-29T07:27:23;3.72;;;1.95;;
38457;SDS011;24239;48.058;10.486;2022-12-29T07:29:50;2.38;;;2.03;;
38457;SDS011;24239;48.058;10.486;2022-12-29T07:32:16;4.97;;;1.88;;
38457;SDS011;24239;48.058;10.486;2022-12-29T07:34:43;3.05;;;2.40;;
38457;SDS011;24239;48.058;10.486;2022-12-29T07:37:12;2.92;;;2.10;;
38457;SDS011;24239;48.058;10.486;2022-12-29T07:39:41;2.30;;;2.10;;
38457;SDS011;24239;48.058;10.486;2022-12-29T07:42:08;3.00;;;2.35;;
38457;SDS011;24239;48.058;10.486;2022-12-29T07:44:36;5.78;;;4.18;;
38457;SDS011;24239;48.058;10.486;2022-12-29T07:47:03;12.60;;;11.30;;
38457;SDS011;24239;48.058;10.486;2022-12-29T07:49:30;7.82;;;3.30;;
38457;SDS011;24239;48.058;10.486;2022-12-29T07:51:56;6.78;;;3.00;;
38457;SDS011;24239;48.058;10.486;2022-12-29T07:54:24;7.95;;;5.00;;
38457;SDS011;24239;48.058;10.486;2022-12-29T07:56:54;4.07;;;3.38;;
38457;SDS011;24239;48.058;10.486;2022-12-29T07:59:24;3.58;;;2.63;;
38457;SDS011;24239;48.058;10.486;2022-12-29T08:01:52;2.17;;;1.95;;
38457;SDS011;24239;48.058;10.486;2022-12-29T08:04:21;3.67;;;2.20;;
38457;SDS011;24239;48.058;10.486;2022-12-29T08:06:52;2.50;;;2.25;;
38457;SDS011;24239;48.058;10.486;2022-12-29T08:09:17;3.30;;;3.00;;
38457;SDS011;24239;48.058;10.486;2022-12-29T08:11:47;2.92;;;2.58;;
38457;SDS011;24239;48.058;10.486;2022-12-29T08:14:14;3.40;;;2.88;;
38457;SDS011;24239;48.058;10.486;2022-12-29T08:16:41;2.47;;;1.85;;
38457;SDS011;24239;48.058;10.486;2022-12-29T08:19:10;2.67;;;1.90;;
38457;SDS011;24239;48.058;10.486;2022-12-29T08:21:37;2.05;;;1.83;;
38457;SDS011;24239;48.058;10.486;2022-12-29T08:24:03;3.42;;;2.10;;
38457;SDS011;24239;48.058;10.486;2022-12-29T08:26:30;4.00;;;1.67;;
38457;SDS011;24239;48.058;10.486;2022-12-29T08:28:55;5.78;;;2.30;;
38457;SDS011;24239;48.058;10.486;2022-12-29T08:31:26;4.05;;;1.80;;
38457;SDS011;24239;48.058;10.486;2022-12-29T08:33:52;2.80;;;2.10;;
38457;SDS011;24239;48.058;10.486;2022-12-29T08:36:19;2.88;;;1.88;;
38457;SDS011;24239;48.058;10.486;2022-12-29T08:38:46;4.80;;;2.00;;
38457;SDS011;24239;48.058;10.486;2022-12-29T08:41:15;9.07;;;2.72;;
38457;SDS011;24239;48.058;10.486;2022-12-29T08:43:47;3.35;;;2.40;;
38457;SDS011;24239;48.058;10.486;2022-12-29T08:46:14;2.78;;;1.80;;
38457;SDS011;24239;48.058;10.486;2022-12-29T08:48:43;2.13;;;1.92;;
38457;SDS011;24239;48.058;10.486;2022-12-29T08:51:09;3.03;;;1.80;;
38457;SDS011;24239;48.058;10.486;2022-12-29T08:53:37;1.95;;;1.67;;
38457;SDS011;24239;48.058;10.486;2022-12-29T08:56:03;3.33;;;1.83;;
38457;SDS011;24239;48.058;10.486;2022-12-29T08:58:31;11.60;;;2.88;;
38457;SDS011;24239;48.058;10.486;2022-12-29T09:00:58;4.50;;;2.50;;
38457;SDS011;24239;48.058;10.486;2022-12-29T09:03:24;22.35;;;15.77;;
38457;SDS011;24239;48.058;10.486;2022-12-29T09:05:53;10.60;;;7.13;;
38457;SDS011;24239;48.058;10.486;2022-12-29T09:08:21;22.83;;;18.27;;
38457;SDS011;24239;48.058;10.486;2022-12-29T09:10:48;59.58;;;49.55;;
38457;SDS011;24239;48.058;10.486;2022-12-29T09:13:16;34.60;;;28.35;;
38457;SDS011;24239;48.058;10.486;2022-12-29T09:15:45;33.00;;;24.83;;
38457;SDS011;24239;48.058;10.486;2022-12-29T09:18:11;15.98;;;7.20;;
38457;SDS011;24239;48.058;10.486;2022-12-29T09:20:39;9.27;;;8.15;;
38457;SDS011;24239;48.058;10.486;2022-12-29T09:23:04;17.38;;;11.15;;
38457;SDS011;24239;48.058;10.486;2022-12-29T09:25:33;3.72;;;2.72;;
38457;SDS011;24239;48.058;10.486;2022-12-29T09:27:59;5.50;;;2.33;;
38457;SDS011;24239;48.058;10.486;2022-12-29T09:30:32;3.50;;;2.10;;
38457;SDS011;24239;48.058;10.486;2022-12-29T09:32:59;69.70;;;11.70;;
38457;SDS011;24239;48.058;10.486;2022-12-29T09:35:26;2.92;;;1.75;;
38457;SDS011;24239;48.058;10.486;2022-12-29T09:37:52;3.17;;;2.10;;
38457;SDS011;24239;48.058;10.486;2022-12-29T09:40:24;3.28;;;1.75;;
38457;SDS011;24239;48.058;10.486;2022-12-29T09:48:57;4.47;;;1.75;;
38457;SDS011;24239;48.058;10.486;2022-12-29T09:51:35;5.75;;;2.38;;
38457;SDS011;24239;48.058;10.486;2022-12-29T09:59:48;2.50;;;1.70;;
38457;SDS011;24239;48.058;10.486;2022-12-29T10:02:39;11.30;;;2.63;;
38457;SDS011;24239;48.058;10.486;2022-12-29T10:05:18;2.72;;;1.60;;
38457;SDS011;24239;48.058;10.486;2022-12-29T10:10:40;12.85;;;3.10;;
38457;SDS011;24239;48.058;10.486;2022-12-29T10:16:01;4.88;;;2.30;;
38457;SDS011;24239;48.058;10.486;2022-12-29T10:21:38;11.38;;;2.50;;
38457;SDS011;24239;48.058;10.486;2022-12-29T10:24:26;4.53;;;1.90;;
38457;SDS011;24239;48.058;10.486;2022-12-29T10:26:55;2.35;;;2.15;;
38457;SDS011;24239;48.058;10.486;2022-12-29T10:29:32;3.92;;;1.92;;
38457;SDS011;24239;48.058;10.486;2022-12-29T10:32:13;1.92;;;1.60;;
38457;SDS011;24239;48.058;10.486;2022-12-29T10:34:58;1.83;;;1.40;;
38457;SDS011;24239;48.058;10.486;2022-12-29T10:40:14;5.50;;;2.03;;
38457;SDS011;24239;48.058;10.486;2022-12-29T10:42:54;4.63;;;1.58;;
38457;SDS011;24239;48.058;10.486;2022-12-29T10:45:28;2.03;;;1.30;;
38457;SDS011;24239;48.058;10.486;2022-12-29T10:48:01;1.50;;;1.17;;
38457;SDS011;24239;48.058;10.486;2022-12-29T10:50:37;1.80;;;1.40;;
38457;SDS011;24239;48.058;10.486;2022-12-29T10:53:08;20.55;;;3.45;;
38457;SDS011;24239;48.058;10.486;2022-12-29T10:55:47;6.93;;;2.03;;
38457;SDS011;24239;48.058;10.486;2022-12-29T10:58:15;5.10;;;1.75;;
38457;SDS011;24239;48.058;10.486;2022-12-29T11:00:43;3.03;;;1.38;;
38457;SDS011;24239;48.058;10.486;2022-12-29T11:08:36;1.98;;;1.40;;
38457;SDS011;24239;48.058;10.486;2022-12-29T11:11:08;2.97;;;1.25;;
38457;SDS011;24239;48.058;10.486;2022-12-29T11:13:50;2.45;;;1.55;;
38457;SDS011;24239;48.058;10.486;2022-12-29T11:16:29;2.28;;;1.40;;
38457;SDS011;24239;48.058;10.486;2022-12-29T11:19:00;3.08;;;1.50;;
38457;SDS011;24239;48.058;10.486;2022-12-29T11:21:34;2.35;;;2.00;;
38457;SDS011;24239;48.058;10.486;2022-12-29T11:24:30;2.10;;;1.77;;
38457;SDS011;24239;48.058;10.486;2022-12-29T11:29:46;1.50;;;1.30;;
38457;SDS011;24239;48.058;10.486;2022-12-29T11:32:22;2.28;;;1.40;;
38457;SDS011;24239;48.058;10.486;2022-12-29T11:34:51;1.60;;;1.50;;
38457;SDS011;24239;48.058;10.486;2022-12-29T11:40:05;2.83;;;1.55;;
38457;SDS011;24239;48.058;10.486;2022-12-29T11:42:50;3.63;;;1.65;;
38457;SDS011;24239;48.058;10.486;2022-12-29T11:45:22;2.65;;;1.58;;
38457;SDS011;24239;48.058;10.486;2022-12-29T11:48:08;2.55;;;1.50;;
38457;SDS011;24239;48.058;10.486;2022-12-29T11:50:42;1.77;;;1.30;;
38457;SDS011;24239;48.058;10.486;2022-12-29T11:53:39;2.10;;;1.48;;
38457;SDS011;24239;48.058;10.486;2022-12-29T11:56:18;1.20;;;1.10;;
38457;SDS011;24239;48.058;10.486;2022-12-29T12:01:46;1.88;;;1.55;;
38457;SDS011;24239;48.058;10.486;2022-12-29T12:04:25;4.82;;;1.63;;
38457;SDS011;24239;48.058;10.486;2022-12-29T12:09:53;3.15;;;1.38;;
38457;SDS011;24239;48.058;10.486;2022-12-29T12:12:39;2.63;;;1.55;;
38457;SDS011;24239;48.058;10.486;2022-12-29T12:15:12;4.28;;;1.60;;
38457;SDS011;24239;48.058;10.486;2022-12-29T12:17:55;2.47;;;1.52;;
38457;SDS011;24239;48.058;10.486;2022-12-29T12:26:50;3.72;;;1.55;;
38457;SDS011;24239;48.058;10.486;2022-12-29T12:32:58;1.20;;;1.10;;
38457;SDS011;24239;48.058;10.486;2022-12-29T13:11:33;8.52;;;2.10;;
38457;SDS011;24239;48.058;10.486;2022-12-29T13:14:37;4.18;;;1.70;;
38457;SDS011;24239;48.058;10.486;2022-12-29T13:26:06;2.33;;;1.42;;
38457;SDS011;24239;48.058;10.486;2022-12-29T13:29:13;1.95;;;1.70;;
38457;SDS011;24239;48.058;10.486;2022-12-29T13:39:43;4.15;;;1.88;;
38457;SDS011;24239;48.058;10.486;2022-12-29T13:42:18;5.60;;;1.67;;
38457;SDS011;24239;48.058;10.486;2022-12-29T13:50:08;1.67;;;1.48;;
38457;SDS011;24239;48.058;10.486;2022-12-29T14:01:15;1.60;;;1.50;;
38457;SDS011;24239;48.058;10.486;2022-12-29T14:03:55;2.45;;;1.60;;
38457;SDS011;24239;48.058;10.486;2022-12-29T14:06:31;2.67;;;1.60;;
38457;SDS011;24239;48.058;10.486;2022-12-29T14:09:07;1.77;;;1.50;;
38457;SDS011;24239;48.058;10.486;2022-12-29T14:12:01;3.33;;;1.70;;
38457;SDS011;24239;48.058;10.486;2022-12-29T14:14:46;5.05;;;2.05;;
38457;SDS011;24239;48.058;10.486;2022-12-29T14:17:16;3.58;;;1.95;;
38457;SDS011;24239;48.058;10.486;2022-12-29T14:19:51;3.30;;;1.80;;
38457;SDS011;24239;48.058;10.486;2022-12-29T14:22:25;2.30;;;1.60;;
38457;SDS011;24239;48.058;10.486;2022-12-29T14:24:54;2.45;;;1.90;;
38457;SDS011;24239;48.058;10.486;2022-12-29T14:29:55;2.58;;;1.65;;
38457;SDS011;24239;48.058;10.486;2022-12-29T14:34:55;4.28;;;1.80;;
38457;SDS011;24239;48.058;10.486;2022-12-29T14:37:28;3.20;;;1.70;;
38457;SDS011;24239;48.058;10.486;2022-12-29T14:40:19;2.22;;;1.48;;
38457;SDS011;24239;48.058;10.486;2022-12-29T14:42:53;2.40;;;1.75;;
38457;SDS011;24239;48.058;10.486;2022-12-29T14:48:02;6.45;;;3.28;;
38457;SDS011;24239;48.058;10.486;2022-12-29T14:50:51;6.63;;;4.43;;
38457;SDS011;24239;48.058;10.486;2022-12-29T14:56:09;3.58;;;2.50;;
38457;SDS011;24239;48.058;10.486;2022-12-29T14:58:47;11.73;;;7.65;;
38457;SDS011;24239;48.058;10.486;2022-12-29T15:04:19;3.97;;;3.17;;
38457;SDS011;24239;48.058;10.486;2022-12-29T15:06:50;2.75;;;2.25;;
38457;SDS011;24239;48.058;10.486;2022-12-29T15:09:43;23.20;;;18.65;;
38457;SDS011;24239;48.058;10.486;2022-12-29T15:15:16;61.72;;;43.88;;
38457;SDS011;24239;48.058;10.486;2022-12-29T15:21:11;13.88;;;10.23;;
38457;SDS011;24239;48.058;10.486;2022-12-29T15:23:45;5.28;;;3.97;;
38457;SDS011;24239;48.058;10.486;2022-12-29T15:26:16;5.72;;;4.35;;
38457;SDS011;24239;48.058;10.486;2022-12-29T15:28:52;3.75;;;2.33;;
38457;SDS011;24239;48.058;10.486;2022-12-29T15:31:23;3.95;;;2.38;;
38457;SDS011;24239;48.058;10.486;2022-12-29T15:34:19;3.42;;;1.80;;
38457;SDS011;24239;48.058;10.486;2022-12-29T15:36:49;2.45;;;1.90;;
38457;SDS011;24239;48.058;10.486;2022-12-29T15:43:01;6.45;;;2.28;;
38457;SDS011;24239;48.058;10.486;2022-12-29T15:45:37;3.67;;;1.58;;
38457;SDS011;24239;48.058;10.486;2022-12-29T15:48:03;4.35;;;1.70;;
38457;SDS011;24239;48.058;10.486;2022-12-29T15:50:31;1.98;;;1.75;;
38457;SDS011;24239;48.058;10.486;2022-12-29T15:52:59;2.15;;;1.77;;
38457;SDS011;24239;48.058;10.486;2022-12-29T15:55:31;3.03;;;1.75;;
38457;SDS011;24239;48.058;10.486;2022-12-29T15:57:58;2.53;;;1.92;;
38457;SDS011;24239;48.058;10.486;2022-12-29T16:00:30;2.42;;;2.22;;
38457;SDS011;24239;48.058;10.486;2022-12-29T16:02:58;5.53;;;2.20;;
38457;SDS011;24239;48.058;10.486;2022-12-29T16:05:36;3.00;;;2.47;;
38457;SDS011;24239;48.058;10.486;2022-12-29T16:08:15;8.75;;;2.95;;
38457;SDS011;24239;48.058;10.486;2022-12-29T16:10:46;4.22;;;2.58;;
38457;SDS011;24239;48.058;10.486;2022-12-29T16:16:19;6.32;;;2.35;;
38457;SDS011;24239;48.058;10.486;2022-12-29T16:18:49;3.33;;;2.20;;
38457;SDS011;24239;48.058;10.486;2022-12-29T16:21:20;4.30;;;1.90;;
38457;SDS011;24239;48.058;10.486;2022-12-29T16:23:52;2.25;;;2.05;;
38457;SDS011;24239;48.058;10.486;2022-12-29T16:26:21;4.70;;;3.47;;
38457;SDS011;24239;48.058;10.486;2022-12-29T16:28:59;4.60;;;2.45;;
38457;SDS011;24239;48.058;10.486;2022-12-29T16:34:25;9.35;;;4.57;;
38457;SDS011;24239;48.058;10.486;2022-12-29T16:41:57;7.38;;;4.65;;
38457;SDS011;24239;48.058;10.486;2022-12-29T16:47:00;3.25;;;2.60;;
38457;SDS011;24239;48.058;10.486;2022-12-29T16:49:29;4.15;;;3.00;;
38457;SDS011;24239;48.058;10.486;2022-12-29T16:51:57;3.13;;;1.77;;
38457;SDS011;24239;48.058;10.486;2022-12-29T16:54:24;4.93;;;3.03;;
38457;SDS011;24239;48.058;10.486;2022-12-29T16:56:53;15.43;;;8.48;;
38457;SDS011;24239;48.058;10.486;2022-12-29T16:59:32;6.10;;;3.10;;
38457;SDS011;24239;48.058;10.486;2022-12-29T17:02:07;6.70;;;3.58;;
38457;SDS011;24239;48.058;10.486;2022-12-29T17:04:40;3.38;;;2.22;;
38457;SDS011;24239;48.058;10.486;2022-12-29T17:07:13;2.47;;;1.92;;
38457;SDS011;24239;48.058;10.486;2022-12-29T17:09:42;5.57;;;2.28;;
38457;SDS011;24239;48.058;10.486;2022-12-29T17:12:17;2.80;;;2.08;;
38457;SDS011;24239;48.058;10.486;2022-12-29T17:22:42;4.43;;;2.00;;
38457;SDS011;24239;48.058;10.486;2022-12-29T17:25:11;2.28;;;1.98;;
38457;SDS011;24239;48.058;10.486;2022-12-29T17:30:25;3.22;;;2.63;;
38457;SDS011;24239;48.058;10.486;2022-12-29T17:35:28;2.60;;;2.20;;
38457;SDS011;24239;48.058;10.486;2022-12-29T17:37:54;3.53;;;1.73;;
38457;SDS011;24239;48.058;10.486;2022-12-29T17:40:26;3.90;;;2.05;;
38457;SDS011;24239;48.058;10.486;2022-12-29T17:42:59;3.50;;;2.10;;
38457;SDS011;24239;48.058;10.486;2022-12-29T17:45:26;5.63;;;2.42;;
38457;SDS011;24239;48.058;10.486;2022-12-29T17:47:54;3.53;;;2.22;;
38457;SDS011;24239;48.058;10.486;2022-12-29T17:50:22;10.07;;;2.40;;
38457;SDS011;24239;48.058;10.486;2022-12-29T17:52:58;4.15;;;2.13;;
38457;SDS011;24239;48.058;10.486;2022-12-29T17:55:30;2.42;;;2.03;;
38457;SDS011;24239;48.058;10.486;2022-12-29T17:57:58;2.58;;;1.88;;
38457;SDS011;24239;48.058;10.486;2022-12-29T18:00:25;2.08;;;1.70;;
38457;SDS011;24239;48.058;10.486;2022-12-29T18:02:55;2.95;;;2.10;;
38457;SDS011;24239;48.058;10.486;2022-12-29T18:07:53;2.22;;;1.85;;
38457;SDS011;24239;48.058;10.486;2022-12-29T18:10:20;2.65;;;2.20;;
38457;SDS011;24239;48.058;10.486;2022-12-29T18:12:51;2.50;;;2.10;;
38457;SDS011;24239;48.058;10.486;2022-12-29T18:15:34;2.28;;;1.73;;
38457;SDS011;24239;48.058;10.486;2022-12-29T18:20:39;4.72;;;2.10;;
38457;SDS011;24239;48.058;10.486;2022-12-29T18:26:01;2.42;;;1.90;;
38457;SDS011;24239;48.058;10.486;2022-12-29T18:31:23;1.80;;;1.55;;